sensor_id;sensor_type;location;lat;lon;timestamp;P1;durP1;ratioP1;P2;durP2;ratioP2
1775;SDS011;885;42.626;23.200;2023-05-16T00:01:59;15.40;;;12.47;;
1775;SDS011;885;42.626;23.200;2023-05-16T00:04:27;16.97;;;12.20;;
1775;SDS011;885;42.626;23.200;2023-05-16T00:06:54;16.33;;;13.30;;
1775;SDS011;885;42.626;23.200;2023-05-16T00:09:20;14.17;;;11.30;;
1775;SDS011;885;42.626;23.200;2023-05-16T00:11:47;13.20;;;10.17;;
1775;SDS011;885;42.626;23.200;2023-05-16T00:14:14;14.80;;;9.00;;
1775;SDS011;885;42.626;23.200;2023-05-16T00:16:41;16.83;;;11.40;;
1775;SDS011;885;42.626;23.200;2023-05-16T00:19:09;17.13;;;13.77;;
1775;SDS011;885;42.626;23.200;2023-05-16T00:21:36;18.07;;;11.60;;
1775;SDS011;885;42.626;23.200;2023-05-16T00:24:03;17.43;;;13.20;;
1775;SDS011;885;42.626;23.200;2023-05-16T00:26:30;20.70;;;13.10;;
1775;SDS011;885;42.626;23.200;2023-05-16T00:28:56;18.17;;;12.17;;
1775;SDS011;885;42.626;23.200;2023-05-16T00:31:23;14.07;;;11.07;;
1775;SDS011;885;42.626;23.200;2023-05-16T00:33:50;20.90;;;13.13;;
1775;SDS011;885;42.626;23.200;2023-05-16T00:36:18;15.27;;;11.83;;
1775;SDS011;885;42.626;23.200;2023-05-16T00:38:45;14.13;;;11.60;;
1775;SDS011;885;42.626;23.200;2023-05-16T00:41:12;21.03;;;12.43;;
1775;SDS011;885;42.626;23.200;2023-05-16T00:43:39;15.03;;;12.23;;
1775;SDS011;885;42.626;23.200;2023-05-16T00:46:05;18.23;;;11.83;;
1775;SDS011;885;42.626;23.200;2023-05-16T00:48:32;15.00;;;12.00;;
1775;SDS011;885;42.626;23.200;2023-05-16T00:50:59;15.77;;;11.83;;
1775;SDS011;885;42.626;23.200;2023-05-16T00:53:28;14.33;;;11.50;;
1775;SDS011;885;42.626;23.200;2023-05-16T00:55:55;21.73;;;15.80;;
1775;SDS011;885;42.626;23.200;2023-05-16T00:58:22;29.83;;;22.63;;
1775;SDS011;885;42.626;23.200;2023-05-16T01:00:50;26.83;;;21.57;;
1775;SDS011;885;42.626;23.200;2023-05-16T01:03:17;28.53;;;22.80;;
1775;SDS011;885;42.626;23.200;2023-05-16T01:05:44;25.70;;;20.77;;
1775;SDS011;885;42.626;23.200;2023-05-16T01:08:11;22.80;;;19.87;;
1775;SDS011;885;42.626;23.200;2023-05-16T01:10:41;28.03;;;24.30;;
1775;SDS011;885;42.626;23.200;2023-05-16T01:13:16;19.03;;;16.40;;
1775;SDS011;885;42.626;23.200;2023-05-16T01:15:51;21.90;;;18.60;;
1775;SDS011;885;42.626;23.200;2023-05-16T01:18:28;25.87;;;21.77;;
1775;SDS011;885;42.626;23.200;2023-05-16T01:21:01;25.60;;;21.17;;
1775;SDS011;885;42.626;23.200;2023-05-16T01:23:38;27.47;;;21.40;;
1775;SDS011;885;42.626;23.200;2023-05-16T01:26:17;24.53;;;21.90;;
1775;SDS011;885;42.626;23.200;2023-05-16T01:28:46;25.73;;;22.90;;
1775;SDS011;885;42.626;23.200;2023-05-16T01:31:14;24.30;;;21.80;;
1775;SDS011;885;42.626;23.200;2023-05-16T01:33:42;25.80;;;23.00;;
1775;SDS011;885;42.626;23.200;2023-05-16T01:36:10;25.13;;;22.40;;
1775;SDS011;885;42.626;23.200;2023-05-16T01:38:43;25.70;;;21.70;;
1775;SDS011;885;42.626;23.200;2023-05-16T01:41:21;22.50;;;17.17;;
1775;SDS011;885;42.626;23.200;2023-05-16T01:43:55;16.40;;;14.57;;
1775;SDS011;885;42.626;23.200;2023-05-16T01:46:26;25.20;;;18.80;;
1775;SDS011;885;42.626;23.200;2023-05-16T01:49:01;23.03;;;20.10;;
1775;SDS011;885;42.626;23.200;2023-05-16T01:51:40;24.80;;;22.30;;
1775;SDS011;885;42.626;23.200;2023-05-16T01:54:09;28.27;;;23.60;;
1775;SDS011;885;42.626;23.200;2023-05-16T01:56:40;28.13;;;22.50;;
1775;SDS011;885;42.626;23.200;2023-05-16T01:59:12;27.33;;;24.43;;
1775;SDS011;885;42.626;23.200;2023-05-16T02:01:39;24.17;;;19.47;;
1775;SDS011;885;42.626;23.200;2023-05-16T02:04:06;19.50;;;17.30;;
1775;SDS011;885;42.626;23.200;2023-05-16T02:06:33;23.93;;;16.07;;
1775;SDS011;885;42.626;23.200;2023-05-16T02:09:00;21.07;;;17.10;;
1775;SDS011;885;42.626;23.200;2023-05-16T02:11:27;17.13;;;15.30;;
1775;SDS011;885;42.626;23.200;2023-05-16T02:13:55;23.60;;;15.50;;
1775;SDS011;885;42.626;23.200;2023-05-16T02:16:21;20.23;;;17.90;;
1775;SDS011;885;42.626;23.200;2023-05-16T02:18:48;19.20;;;17.27;;
1775;SDS011;885;42.626;23.200;2023-05-16T02:21:15;18.60;;;16.33;;
1775;SDS011;885;42.626;23.200;2023-05-16T02:23:41;20.23;;;16.07;;
1775;SDS011;885;42.626;23.200;2023-05-16T02:26:08;16.90;;;14.83;;
1775;SDS011;885;42.626;23.200;2023-05-16T02:28:35;24.07;;;17.60;;
1775;SDS011;885;42.626;23.200;2023-05-16T02:31:03;21.40;;;19.10;;
1775;SDS011;885;42.626;23.200;2023-05-16T02:33:30;18.93;;;15.40;;
1775;SDS011;885;42.626;23.200;2023-05-16T02:35:56;19.87;;;16.30;;
1775;SDS011;885;42.626;23.200;2023-05-16T02:38:23;19.00;;;14.53;;
1775;SDS011;885;42.626;23.200;2023-05-16T02:40:50;17.63;;;11.20;;
1775;SDS011;885;42.626;23.200;2023-05-16T02:43:17;14.73;;;12.43;;
1775;SDS011;885;42.626;23.200;2023-05-16T02:45:44;15.67;;;14.00;;
1775;SDS011;885;42.626;23.200;2023-05-16T02:48:12;16.53;;;14.80;;
1775;SDS011;885;42.626;23.200;2023-05-16T02:50:39;15.30;;;13.57;;
1775;SDS011;885;42.626;23.200;2023-05-16T02:53:06;18.90;;;16.90;;
1775;SDS011;885;42.626;23.200;2023-05-16T02:55:33;16.40;;;12.60;;
1775;SDS011;885;42.626;23.200;2023-05-16T02:58:00;17.57;;;11.90;;
1775;SDS011;885;42.626;23.200;2023-05-16T03:00:26;16.70;;;13.00;;
1775;SDS011;885;42.626;23.200;2023-05-16T03:02:53;21.37;;;14.00;;
1775;SDS011;885;42.626;23.200;2023-05-16T03:05:21;23.70;;;17.73;;
1775;SDS011;885;42.626;23.200;2023-05-16T03:07:48;16.53;;;12.17;;
1775;SDS011;885;42.626;23.200;2023-05-16T03:10:15;19.80;;;16.80;;
1775;SDS011;885;42.626;23.200;2023-05-16T03:12:42;19.90;;;17.77;;
1775;SDS011;885;42.626;23.200;2023-05-16T03:15:09;18.00;;;15.93;;
1775;SDS011;885;42.626;23.200;2023-05-16T03:17:36;22.00;;;18.47;;
1775;SDS011;885;42.626;23.200;2023-05-16T03:20:03;19.63;;;17.53;;
1775;SDS011;885;42.626;23.200;2023-05-16T03:22:35;23.53;;;18.37;;
1775;SDS011;885;42.626;23.200;2023-05-16T03:25:01;19.70;;;16.70;;
1775;SDS011;885;42.626;23.200;2023-05-16T03:27:28;16.87;;;15.17;;
1775;SDS011;885;42.626;23.200;2023-05-16T03:29:55;18.13;;;15.70;;
1775;SDS011;885;42.626;23.200;2023-05-16T03:32:22;17.93;;;10.50;;
1775;SDS011;885;42.626;23.200;2023-05-16T03:34:49;15.50;;;13.40;;
1775;SDS011;885;42.626;23.200;2023-05-16T03:37:15;17.97;;;14.50;;
1775;SDS011;885;42.626;23.200;2023-05-16T03:39:44;15.47;;;13.77;;
1775;SDS011;885;42.626;23.200;2023-05-16T03:42:10;16.83;;;13.27;;
1775;SDS011;885;42.626;23.200;2023-05-16T03:44:37;18.10;;;15.97;;
1775;SDS011;885;42.626;23.200;2023-05-16T03:47:04;21.07;;;14.60;;
1775;SDS011;885;42.626;23.200;2023-05-16T03:49:31;8.03;;;7.30;;
1775;SDS011;885;42.626;23.200;2023-05-16T03:51:57;24.00;;;16.20;;
1775;SDS011;885;42.626;23.200;2023-05-16T03:54:24;21.37;;;13.50;;
1775;SDS011;885;42.626;23.200;2023-05-16T03:56:52;15.60;;;13.30;;
1775;SDS011;885;42.626;23.200;2023-05-16T03:59:19;20.47;;;12.83;;
1775;SDS011;885;42.626;23.200;2023-05-16T04:01:46;22.53;;;16.60;;
1775;SDS011;885;42.626;23.200;2023-05-16T04:04:13;18.37;;;15.83;;
1775;SDS011;885;42.626;23.200;2023-05-16T04:06:39;19.80;;;16.87;;
1775;SDS011;885;42.626;23.200;2023-05-16T04:09:06;17.33;;;14.90;;
1775;SDS011;885;42.626;23.200;2023-05-16T04:11:33;20.00;;;16.47;;
1775;SDS011;885;42.626;23.200;2023-05-16T04:14:01;20.00;;;15.10;;
1775;SDS011;885;42.626;23.200;2023-05-16T04:16:28;15.23;;;11.37;;
1775;SDS011;885;42.626;23.200;2023-05-16T04:18:55;28.17;;;13.70;;
1775;SDS011;885;42.626;23.200;2023-05-16T04:21:22;18.07;;;13.80;;
1775;SDS011;885;42.626;23.200;2023-05-16T04:23:48;16.83;;;15.03;;
1775;SDS011;885;42.626;23.200;2023-05-16T04:26:15;19.93;;;16.07;;
1775;SDS011;885;42.626;23.200;2023-05-16T04:28:42;17.50;;;15.70;;
1775;SDS011;885;42.626;23.200;2023-05-16T04:31:10;21.67;;;15.70;;
1775;SDS011;885;42.626;23.200;2023-05-16T04:33:38;19.63;;;14.20;;
1775;SDS011;885;42.626;23.200;2023-05-16T04:36:05;16.43;;;13.00;;
1775;SDS011;885;42.626;23.200;2023-05-16T04:38:32;18.77;;;14.30;;
1775;SDS011;885;42.626;23.200;2023-05-16T04:40:59;19.40;;;17.27;;
1775;SDS011;885;42.626;23.200;2023-05-16T04:43:26;20.77;;;17.23;;
1775;SDS011;885;42.626;23.200;2023-05-16T04:45:52;23.73;;;18.90;;
1775;SDS011;885;42.626;23.200;2023-05-16T04:48:21;20.53;;;16.67;;
1775;SDS011;885;42.626;23.200;2023-05-16T04:50:48;21.97;;;19.50;;
1775;SDS011;885;42.626;23.200;2023-05-16T04:53:15;20.10;;;16.13;;
1775;SDS011;885;42.626;23.200;2023-05-16T04:55:42;19.30;;;16.50;;
1775;SDS011;885;42.626;23.200;2023-05-16T04:58:09;17.47;;;14.70;;
1775;SDS011;885;42.626;23.200;2023-05-16T05:00:37;20.60;;;12.43;;
1775;SDS011;885;42.626;23.200;2023-05-16T05:03:04;10.80;;;9.53;;
1775;SDS011;885;42.626;23.200;2023-05-16T05:05:32;11.80;;;8.93;;
1775;SDS011;885;42.626;23.200;2023-05-16T05:07:59;9.77;;;8.27;;
1775;SDS011;885;42.626;23.200;2023-05-16T05:10:26;15.37;;;11.27;;
1775;SDS011;885;42.626;23.200;2023-05-16T05:12:53;25.57;;;16.20;;
1775;SDS011;885;42.626;23.200;2023-05-16T05:15:20;13.80;;;11.57;;
1775;SDS011;885;42.626;23.200;2023-05-16T05:17:46;19.20;;;11.70;;
1775;SDS011;885;42.626;23.200;2023-05-16T05:20:13;18.30;;;16.10;;
1775;SDS011;885;42.626;23.200;2023-05-16T05:22:42;20.47;;;17.40;;
1775;SDS011;885;42.626;23.200;2023-05-16T05:25:09;22.03;;;16.33;;
1775;SDS011;885;42.626;23.200;2023-05-16T05:27:35;16.13;;;14.30;;
1775;SDS011;885;42.626;23.200;2023-05-16T05:30:02;11.70;;;10.13;;
1775;SDS011;885;42.626;23.200;2023-05-16T05:32:30;17.13;;;12.17;;
1775;SDS011;885;42.626;23.200;2023-05-16T05:34:56;13.17;;;10.83;;
1775;SDS011;885;42.626;23.200;2023-05-16T05:37:23;16.00;;;12.83;;
1775;SDS011;885;42.626;23.200;2023-05-16T05:39:52;24.73;;;19.07;;
1775;SDS011;885;42.626;23.200;2023-05-16T05:42:19;22.43;;;20.13;;
1775;SDS011;885;42.626;23.200;2023-05-16T05:44:46;32.63;;;23.43;;
1775;SDS011;885;42.626;23.200;2023-05-16T05:47:12;26.37;;;23.57;;
1775;SDS011;885;42.626;23.200;2023-05-16T05:49:40;30.50;;;23.33;;
1775;SDS011;885;42.626;23.200;2023-05-16T05:52:07;25.10;;;22.40;;
1775;SDS011;885;42.626;23.200;2023-05-16T05:54:33;26.03;;;23.13;;
1775;SDS011;885;42.626;23.200;2023-05-16T05:57:01;26.63;;;21.77;;
1775;SDS011;885;42.626;23.200;2023-05-16T05:59:28;29.03;;;23.00;;
1775;SDS011;885;42.626;23.200;2023-05-16T06:01:55;23.70;;;21.30;;
1775;SDS011;885;42.626;23.200;2023-05-16T06:04:22;22.87;;;20.57;;
1775;SDS011;885;42.626;23.200;2023-05-16T06:06:50;25.70;;;22.03;;
1775;SDS011;885;42.626;23.200;2023-05-16T06:09:17;22.47;;;20.17;;
1775;SDS011;885;42.626;23.200;2023-05-16T06:11:44;22.90;;;20.30;;
1775;SDS011;885;42.626;23.200;2023-05-16T06:14:12;24.17;;;21.67;;
1775;SDS011;885;42.626;23.200;2023-05-16T06:16:39;23.50;;;21.00;;
1775;SDS011;885;42.626;23.200;2023-05-16T06:19:06;22.40;;;18.87;;
1775;SDS011;885;42.626;23.200;2023-05-16T06:21:33;28.07;;;20.80;;
1775;SDS011;885;42.626;23.200;2023-05-16T06:24:00;17.10;;;14.73;;
1775;SDS011;885;42.626;23.200;2023-05-16T06:26:27;17.73;;;15.83;;
1775;SDS011;885;42.626;23.200;2023-05-16T06:28:54;20.23;;;16.47;;
1775;SDS011;885;42.626;23.200;2023-05-16T06:31:22;21.90;;;18.43;;
1775;SDS011;885;42.626;23.200;2023-05-16T06:33:48;20.20;;;17.80;;
1775;SDS011;885;42.626;23.200;2023-05-16T06:36:15;20.97;;;17.97;;
1775;SDS011;885;42.626;23.200;2023-05-16T06:38:42;22.87;;;19.30;;
1775;SDS011;885;42.626;23.200;2023-05-16T06:41:09;21.60;;;17.20;;
1775;SDS011;885;42.626;23.200;2023-05-16T06:43:36;23.00;;;19.07;;
1775;SDS011;885;42.626;23.200;2023-05-16T06:46:03;19.40;;;17.33;;
1775;SDS011;885;42.626;23.200;2023-05-16T06:48:31;20.03;;;18.20;;
1775;SDS011;885;42.626;23.200;2023-05-16T06:50:58;23.33;;;18.57;;
1775;SDS011;885;42.626;23.200;2023-05-16T06:53:25;20.83;;;17.47;;
1775;SDS011;885;42.626;23.200;2023-05-16T06:55:52;21.83;;;17.20;;
1775;SDS011;885;42.626;23.200;2023-05-16T06:58:19;22.97;;;18.00;;
1775;SDS011;885;42.626;23.200;2023-05-16T07:00:47;19.30;;;16.40;;
1775;SDS011;885;42.626;23.200;2023-05-16T07:03:14;18.90;;;17.00;;
1775;SDS011;885;42.626;23.200;2023-05-16T07:05:42;22.07;;;18.30;;
1775;SDS011;885;42.626;23.200;2023-05-16T07:08:09;18.23;;;16.13;;
1775;SDS011;885;42.626;23.200;2023-05-16T07:10:36;18.43;;;16.27;;
1775;SDS011;885;42.626;23.200;2023-05-16T07:13:03;18.77;;;16.97;;
1775;SDS011;885;42.626;23.200;2023-05-16T07:15:30;17.17;;;15.40;;
1775;SDS011;885;42.626;23.200;2023-05-16T07:17:57;21.77;;;18.70;;
1775;SDS011;885;42.626;23.200;2023-05-16T07:20:24;17.73;;;15.60;;
1775;SDS011;885;42.626;23.200;2023-05-16T07:22:52;18.17;;;15.50;;
1775;SDS011;885;42.626;23.200;2023-05-16T07:25:21;17.17;;;15.47;;
1775;SDS011;885;42.626;23.200;2023-05-16T07:27:48;16.17;;;14.10;;
1775;SDS011;885;42.626;23.200;2023-05-16T07:30:16;17.67;;;15.67;;
1775;SDS011;885;42.626;23.200;2023-05-16T07:32:43;17.57;;;15.70;;
1775;SDS011;885;42.626;23.200;2023-05-16T07:35:10;17.83;;;16.03;;
1775;SDS011;885;42.626;23.200;2023-05-16T07:37:37;18.20;;;14.43;;
1775;SDS011;885;42.626;23.200;2023-05-16T07:40:07;17.43;;;15.03;;
1775;SDS011;885;42.626;23.200;2023-05-16T07:42:35;19.93;;;14.57;;
1775;SDS011;885;42.626;23.200;2023-05-16T07:45:02;17.13;;;15.33;;
1775;SDS011;885;42.626;23.200;2023-05-16T07:47:29;36.50;;;27.90;;
1775;SDS011;885;42.626;23.200;2023-05-16T07:49:56;78.67;;;49.67;;
1775;SDS011;885;42.626;23.200;2023-05-16T07:52:22;30.20;;;21.57;;
1775;SDS011;885;42.626;23.200;2023-05-16T07:54:49;18.60;;;16.70;;
1775;SDS011;885;42.626;23.200;2023-05-16T07:57:17;18.37;;;14.67;;
1775;SDS011;885;42.626;23.200;2023-05-16T07:59:45;20.77;;;16.80;;
1775;SDS011;885;42.626;23.200;2023-05-16T08:02:11;16.67;;;14.70;;
1775;SDS011;885;42.626;23.200;2023-05-16T08:04:38;14.63;;;13.23;;
1775;SDS011;885;42.626;23.200;2023-05-16T08:07:05;13.90;;;12.57;;
1775;SDS011;885;42.626;23.200;2023-05-16T08:09:33;17.83;;;13.70;;
1775;SDS011;885;42.626;23.200;2023-05-16T08:12:00;24.23;;;13.20;;
1775;SDS011;885;42.626;23.200;2023-05-16T08:14:29;15.03;;;13.40;;
1775;SDS011;885;42.626;23.200;2023-05-16T08:16:57;22.00;;;16.90;;
1775;SDS011;885;42.626;23.200;2023-05-16T08:19:24;20.03;;;14.07;;
1775;SDS011;885;42.626;23.200;2023-05-16T08:21:50;19.23;;;13.57;;
1775;SDS011;885;42.626;23.200;2023-05-16T08:24:18;12.33;;;11.00;;
1775;SDS011;885;42.626;23.200;2023-05-16T08:26:45;12.40;;;11.20;;
1775;SDS011;885;42.626;23.200;2023-05-16T08:29:11;12.67;;;11.37;;
1775;SDS011;885;42.626;23.200;2023-05-16T08:31:40;10.77;;;9.77;;
1775;SDS011;885;42.626;23.200;2023-05-16T08:34:06;11.00;;;9.70;;
1775;SDS011;885;42.626;23.200;2023-05-16T08:36:34;14.20;;;10.53;;
1775;SDS011;885;42.626;23.200;2023-05-16T08:39:01;10.07;;;9.07;;
1775;SDS011;885;42.626;23.200;2023-05-16T08:41:29;13.63;;;9.60;;
1775;SDS011;885;42.626;23.200;2023-05-16T08:43:56;13.63;;;9.53;;
1775;SDS011;885;42.626;23.200;2023-05-16T08:46:23;10.53;;;9.43;;
1775;SDS011;885;42.626;23.200;2023-05-16T08:48:52;11.70;;;8.77;;
1775;SDS011;885;42.626;23.200;2023-05-16T08:51:24;12.90;;;9.03;;
1775;SDS011;885;42.626;23.200;2023-05-16T08:53:53;11.93;;;9.23;;
1775;SDS011;885;42.626;23.200;2023-05-16T08:56:25;11.50;;;9.07;;
1775;SDS011;885;42.626;23.200;2023-05-16T08:58:52;14.20;;;9.90;;
1775;SDS011;885;42.626;23.200;2023-05-16T09:01:22;17.23;;;10.73;;
1775;SDS011;885;42.626;23.200;2023-05-16T09:03:49;13.77;;;11.60;;
1775;SDS011;885;42.626;23.200;2023-05-16T09:06:18;13.30;;;10.10;;
1775;SDS011;885;42.626;23.200;2023-05-16T09:08:45;12.80;;;10.60;;
1775;SDS011;885;42.626;23.200;2023-05-16T09:11:12;14.33;;;10.03;;
1775;SDS011;885;42.626;23.200;2023-05-16T09:13:39;15.60;;;9.90;;
1775;SDS011;885;42.626;23.200;2023-05-16T09:16:09;11.00;;;9.90;;
1775;SDS011;885;42.626;23.200;2023-05-16T09:18:37;14.77;;;9.70;;
1775;SDS011;885;42.626;23.200;2023-05-16T09:21:04;15.00;;;10.80;;
1775;SDS011;885;42.626;23.200;2023-05-16T09:23:34;12.93;;;9.30;;
1775;SDS011;885;42.626;23.200;2023-05-16T09:26:00;12.47;;;9.30;;
1775;SDS011;885;42.626;23.200;2023-05-16T09:28:27;12.10;;;9.03;;
1775;SDS011;885;42.626;23.200;2023-05-16T09:30:55;12.93;;;9.20;;
1775;SDS011;885;42.626;23.200;2023-05-16T09:33:23;13.73;;;9.63;;
1775;SDS011;885;42.626;23.200;2023-05-16T09:35:56;13.47;;;9.70;;
1775;SDS011;885;42.626;23.200;2023-05-16T09:38:23;14.47;;;9.90;;
1775;SDS011;885;42.626;23.200;2023-05-16T09:40:51;12.20;;;9.67;;
1775;SDS011;885;42.626;23.200;2023-05-16T09:43:19;15.73;;;9.80;;
1775;SDS011;885;42.626;23.200;2023-05-16T09:45:48;12.30;;;10.10;;
1775;SDS011;885;42.626;23.200;2023-05-16T09:48:15;13.97;;;10.00;;
1775;SDS011;885;42.626;23.200;2023-05-16T09:50:45;12.93;;;10.03;;
1775;SDS011;885;42.626;23.200;2023-05-16T09:53:13;10.80;;;9.17;;
1775;SDS011;885;42.626;23.200;2023-05-16T09:55:40;10.53;;;9.33;;
1775;SDS011;885;42.626;23.200;2023-05-16T09:58:08;13.60;;;9.67;;
1775;SDS011;885;42.626;23.200;2023-05-16T10:00:35;16.90;;;10.70;;
1775;SDS011;885;42.626;23.200;2023-05-16T10:03:03;17.70;;;10.13;;
1775;SDS011;885;42.626;23.200;2023-05-16T10:05:30;12.97;;;10.90;;
1775;SDS011;885;42.626;23.200;2023-05-16T10:07:57;13.50;;;11.47;;
1775;SDS011;885;42.626;23.200;2023-05-16T10:10:24;11.80;;;10.50;;
1775;SDS011;885;42.626;23.200;2023-05-16T10:12:52;13.03;;;11.70;;
1775;SDS011;885;42.626;23.200;2023-05-16T10:15:26;15.23;;;10.87;;
1775;SDS011;885;42.626;23.200;2023-05-16T10:17:54;15.10;;;11.87;;
1775;SDS011;885;42.626;23.200;2023-05-16T10:20:23;12.73;;;10.80;;
1775;SDS011;885;42.626;23.200;2023-05-16T10:22:52;15.27;;;11.67;;
1775;SDS011;885;42.626;23.200;2023-05-16T10:25:23;15.13;;;11.00;;
1775;SDS011;885;42.626;23.200;2023-05-16T10:27:54;13.20;;;9.10;;
1775;SDS011;885;42.626;23.200;2023-05-16T10:30:21;11.53;;;9.57;;
1775;SDS011;885;42.626;23.200;2023-05-16T10:32:49;11.57;;;9.03;;
1775;SDS011;885;42.626;23.200;2023-05-16T10:35:17;12.40;;;9.93;;
1775;SDS011;885;42.626;23.200;2023-05-16T10:37:44;16.57;;;9.40;;
1775;SDS011;885;42.626;23.200;2023-05-16T10:40:14;17.17;;;11.97;;
1775;SDS011;885;42.626;23.200;2023-05-16T10:42:43;12.83;;;9.60;;
1775;SDS011;885;42.626;23.200;2023-05-16T10:45:20;10.93;;;9.23;;
1775;SDS011;885;42.626;23.200;2023-05-16T10:47:53;15.00;;;10.33;;
1775;SDS011;885;42.626;23.200;2023-05-16T10:50:31;11.33;;;9.30;;
1775;SDS011;885;42.626;23.200;2023-05-16T10:53:15;10.50;;;9.50;;
1775;SDS011;885;42.626;23.200;2023-05-16T10:55:47;8.97;;;8.03;;
1775;SDS011;885;42.626;23.200;2023-05-16T10:58:22;15.07;;;8.20;;
1775;SDS011;885;42.626;23.200;2023-05-16T11:04:02;14.10;;;8.73;;
1775;SDS011;885;42.626;23.200;2023-05-16T11:06:34;12.27;;;8.80;;
1775;SDS011;885;42.626;23.200;2023-05-16T11:09:16;10.30;;;9.20;;
1775;SDS011;885;42.626;23.200;2023-05-16T11:11:56;10.63;;;9.60;;
1775;SDS011;885;42.626;23.200;2023-05-16T11:14:28;10.80;;;9.40;;
1775;SDS011;885;42.626;23.200;2023-05-16T11:17:02;11.43;;;9.60;;
1775;SDS011;885;42.626;23.200;2023-05-16T11:19:39;10.97;;;9.47;;
1775;SDS011;885;42.626;23.200;2023-05-16T11:22:10;11.77;;;10.57;;
1775;SDS011;885;42.626;23.200;2023-05-16T11:24:49;12.20;;;10.57;;
1775;SDS011;885;42.626;23.200;2023-05-16T11:27:21;12.07;;;10.17;;
1775;SDS011;885;42.626;23.200;2023-05-16T11:29:50;11.07;;;9.80;;
1775;SDS011;885;42.626;23.200;2023-05-16T11:32:19;11.80;;;10.60;;
1775;SDS011;885;42.626;23.200;2023-05-16T11:34:48;11.47;;;10.27;;
1775;SDS011;885;42.626;23.200;2023-05-16T11:37:16;18.17;;;9.90;;
1775;SDS011;885;42.626;23.200;2023-05-16T11:39:44;14.00;;;10.00;;
1775;SDS011;885;42.626;23.200;2023-05-16T11:42:10;11.30;;;10.10;;
1775;SDS011;885;42.626;23.200;2023-05-16T11:44:37;14.53;;;10.90;;
1775;SDS011;885;42.626;23.200;2023-05-16T11:47:04;17.00;;;12.43;;
1775;SDS011;885;42.626;23.200;2023-05-16T11:49:32;13.63;;;12.23;;
1775;SDS011;885;42.626;23.200;2023-05-16T11:52:01;12.27;;;10.90;;
1775;SDS011;885;42.626;23.200;2023-05-16T11:54:28;18.27;;;11.53;;
1775;SDS011;885;42.626;23.200;2023-05-16T11:56:54;12.00;;;10.77;;
1775;SDS011;885;42.626;23.200;2023-05-16T11:59:21;15.27;;;11.40;;
1775;SDS011;885;42.626;23.200;2023-05-16T12:01:48;15.50;;;10.93;;
1775;SDS011;885;42.626;23.200;2023-05-16T12:04:15;16.30;;;10.90;;
1775;SDS011;885;42.626;23.200;2023-05-16T12:06:44;14.70;;;12.30;;
1775;SDS011;885;42.626;23.200;2023-05-16T12:09:25;14.27;;;12.80;;
1775;SDS011;885;42.626;23.200;2023-05-16T12:11:52;13.87;;;11.10;;
1775;SDS011;885;42.626;23.200;2023-05-16T12:14:18;16.13;;;11.50;;
1775;SDS011;885;42.626;23.200;2023-05-16T12:16:45;13.93;;;10.80;;
1775;SDS011;885;42.626;23.200;2023-05-16T12:19:13;13.90;;;11.47;;
1775;SDS011;885;42.626;23.200;2023-05-16T12:21:40;12.40;;;10.23;;
1775;SDS011;885;42.626;23.200;2023-05-16T12:24:10;11.37;;;10.13;;
1775;SDS011;885;42.626;23.200;2023-05-16T12:26:39;12.00;;;10.37;;
1775;SDS011;885;42.626;23.200;2023-05-16T12:29:08;11.90;;;9.80;;
1775;SDS011;885;42.626;23.200;2023-05-16T12:31:36;11.43;;;10.23;;
1775;SDS011;885;42.626;23.200;2023-05-16T12:34:04;20.10;;;10.83;;
1775;SDS011;885;42.626;23.200;2023-05-16T12:36:40;12.30;;;11.10;;
1775;SDS011;885;42.626;23.200;2023-05-16T12:39:10;12.30;;;11.10;;
1775;SDS011;885;42.626;23.200;2023-05-16T12:41:40;14.47;;;12.90;;
1775;SDS011;885;42.626;23.200;2023-05-16T12:44:11;15.53;;;12.07;;
1775;SDS011;885;42.626;23.200;2023-05-16T12:46:41;14.50;;;11.10;;
1775;SDS011;885;42.626;23.200;2023-05-16T12:49:12;16.13;;;11.60;;
1775;SDS011;885;42.626;23.200;2023-05-16T12:51:39;12.97;;;11.53;;
1775;SDS011;885;42.626;23.200;2023-05-16T12:54:07;14.90;;;11.80;;
1775;SDS011;885;42.626;23.200;2023-05-16T12:56:35;15.70;;;11.83;;
1775;SDS011;885;42.626;23.200;2023-05-16T12:59:04;12.67;;;9.97;;
1775;SDS011;885;42.626;23.200;2023-05-16T13:01:30;15.23;;;11.80;;
1775;SDS011;885;42.626;23.200;2023-05-16T13:03:58;13.83;;;12.10;;
1775;SDS011;885;42.626;23.200;2023-05-16T13:06:25;13.87;;;12.50;;
1775;SDS011;885;42.626;23.200;2023-05-16T13:08:53;13.03;;;11.60;;
1775;SDS011;885;42.626;23.200;2023-05-16T13:11:20;13.77;;;11.17;;
1775;SDS011;885;42.626;23.200;2023-05-16T13:13:47;16.00;;;11.93;;
1775;SDS011;885;42.626;23.200;2023-05-16T13:16:15;17.73;;;11.63;;
1775;SDS011;885;42.626;23.200;2023-05-16T13:18:42;13.93;;;12.33;;
1775;SDS011;885;42.626;23.200;2023-05-16T13:21:08;19.13;;;13.07;;
1775;SDS011;885;42.626;23.200;2023-05-16T13:23:35;16.50;;;12.90;;
1775;SDS011;885;42.626;23.200;2023-05-16T13:26:02;15.20;;;12.47;;
1775;SDS011;885;42.626;23.200;2023-05-16T13:28:30;14.23;;;12.70;;
1775;SDS011;885;42.626;23.200;2023-05-16T13:30:57;16.60;;;13.30;;
1775;SDS011;885;42.626;23.200;2023-05-16T13:33:25;15.33;;;11.77;;
1775;SDS011;885;42.626;23.200;2023-05-16T13:35:52;16.90;;;13.43;;
1775;SDS011;885;42.626;23.200;2023-05-16T13:38:19;13.50;;;12.10;;
1775;SDS011;885;42.626;23.200;2023-05-16T13:40:47;13.50;;;12.10;;
1775;SDS011;885;42.626;23.200;2023-05-16T13:43:14;15.40;;;13.03;;
1775;SDS011;885;42.626;23.200;2023-05-16T13:45:41;15.57;;;13.10;;
1775;SDS011;885;42.626;23.200;2023-05-16T13:48:08;14.37;;;12.73;;
1775;SDS011;885;42.626;23.200;2023-05-16T13:50:37;16.97;;;15.10;;
1775;SDS011;885;42.626;23.200;2023-05-16T13:53:04;16.87;;;15.13;;
1775;SDS011;885;42.626;23.200;2023-05-16T13:55:31;15.63;;;13.93;;
1775;SDS011;885;42.626;23.200;2023-05-16T13:57:58;17.73;;;14.20;;
1775;SDS011;885;42.626;23.200;2023-05-16T14:00:25;22.90;;;14.60;;
1775;SDS011;885;42.626;23.200;2023-05-16T14:02:52;16.37;;;14.60;;
1775;SDS011;885;42.626;23.200;2023-05-16T14:05:18;20.20;;;15.90;;
1775;SDS011;885;42.626;23.200;2023-05-16T14:07:47;18.30;;;15.03;;
1775;SDS011;885;42.626;23.200;2023-05-16T14:10:13;25.63;;;16.70;;
1775;SDS011;885;42.626;23.200;2023-05-16T14:12:40;18.70;;;15.33;;
1775;SDS011;885;42.626;23.200;2023-05-16T14:15:07;26.90;;;16.30;;
1775;SDS011;885;42.626;23.200;2023-05-16T14:17:34;24.40;;;15.87;;
1775;SDS011;885;42.626;23.200;2023-05-16T14:20:01;18.80;;;14.43;;
1775;SDS011;885;42.626;23.200;2023-05-16T14:22:31;23.10;;;14.97;;
1775;SDS011;885;42.626;23.200;2023-05-16T14:24:59;15.10;;;13.50;;
1775;SDS011;885;42.626;23.200;2023-05-16T14:27:25;19.43;;;14.40;;
1775;SDS011;885;42.626;23.200;2023-05-16T14:29:52;21.40;;;13.17;;
1775;SDS011;885;42.626;23.200;2023-05-16T14:32:19;14.37;;;11.23;;
1775;SDS011;885;42.626;23.200;2023-05-16T14:34:46;17.80;;;13.73;;
1775;SDS011;885;42.626;23.200;2023-05-16T14:37:13;14.40;;;12.53;;
1775;SDS011;885;42.626;23.200;2023-05-16T14:39:40;18.30;;;11.00;;
1775;SDS011;885;42.626;23.200;2023-05-16T14:42:10;19.07;;;11.90;;
1775;SDS011;885;42.626;23.200;2023-05-16T14:44:37;17.60;;;12.20;;
1775;SDS011;885;42.626;23.200;2023-05-16T14:47:04;16.87;;;12.40;;
1775;SDS011;885;42.626;23.200;2023-05-16T14:49:31;16.07;;;11.63;;
1775;SDS011;885;42.626;23.200;2023-05-16T14:51:57;16.90;;;12.30;;
1775;SDS011;885;42.626;23.200;2023-05-16T14:54:24;16.00;;;11.73;;
1775;SDS011;885;42.626;23.200;2023-05-16T14:56:51;16.23;;;13.50;;
1775;SDS011;885;42.626;23.200;2023-05-16T14:59:19;15.33;;;12.53;;